Terminal Aerodrome Forecast
Issued by NWS

Home | Current Version | Previous Version | Text Only | Print | Product List | Glossary On
Versions: 1 2 3 4 5 6 7 8 9 10 11 12 13 14 15 16 17 18 19 20 21 22 23 24 25 26
000
FTUS46 KMTR 200500
TAFSFO
TAF
KSFO 200520Z 2006/2112 29006KT P6SM BKN009
     FM201700 29008KT P6SM SCT012
     FM201900 29015KT P6SM FEW015
     FM210400 29008KT P6SM SCT010
     FM210600 29006KT P6SM BKN008=

USA.gov is the U.S. government's official web portal to all federal, state and local government web resources and services.